Airfield :
LOGIN :

Register | Disclaimer

   EN    FR    IT 

 










Legend :    VFR   Marginal VFR   IFR   Intensive IFR   Very Intensive IFR
Visi :
Ceiling :
>= 8 km
>= 3000ft
5 to 8 km
1000 to 3000 ft
1500m to 5 km
500 to 1000 ft
800 to 1500m
200 to 500 ft
< 800m
< 200 ft
Symbols :   Thunderstorms  Fog  Heavy snow  Heavy precipitations  Wind > 20 kt
SIGMETs :     Misc.  Thunderstorms  Icing  Turbulence  Mountain Waves  Volcanic Ashes






- Airport Elevation : 95 ft
- IATA code : AHU


GMTA - Al Hoceima

CURRENT METAR :
  • 130000Z 20002KT CAVOK 14/08 Q1016 NOSIG

EXPIRED METARs :
  • 122300Z 24002KT CAVOK 14/08 Q1016 NOSIG
  • 122205Z 26004KT CAVOK 15/09 Q1016 NOSIG

TAF TAF GMTA
Valid from the 13 at 00:00 until the 14 at 06:00 UTC


122300Z 1300/1406 28005KT CAVOK



MET'MAP, your aeronautical weather chart ! - Copyright ORBIFLY December 2007 - Disclaimer

ORBIFLY MET'MAP TEAM :

Programming & Development : Alexandra Zaïnal
Concept & Development : Baudouin d'Aumeries
Co-Development & Prog : Marc-Olivier Méhu
Technical & hardware support : Manuel Goepfert

Contact : metmap@orbifly.com




SOURCES & CREDITS :

   NOAA